Weather at Grossmont Hospital Heliport

Public forecast

Using degrees Fahrenheit for public forecast. Weather courtesy of forecast.io.

Closest aviation weather report (METAR) to Grossmont Hospital Heliport

Report is more than 6 hours old.

Closest report is Gillespie Field, 3.3 nm (6.1 km) NNE.

2022/11/14 14:47 (retrieved 2 years ago)

KSEE 141447Z 00000KT 10SM SKC 05/03 A3011

Closest aviation forecast (TAF) to Grossmont Hospital Heliport

Forecast is more than 12 hours old.

Closest forecast is Miramar Marine Corps Air Station - Mitscher Field, 8.7 nm (16.1 km) NW.

2023/02/22 18:12 Ammendment (retrieved 1 year ago)

TAF AMD KNKX 2218/2315 28025G35KT 9999 VCSH SCT020 BKN035 WSCONDS 650401 640507 520002 540203 520509 521409 522309 QNH2979INS TEMPO 2216/2222 28035G45KT -SHRA FM230030 27020G30KT 9999 VCSH SCT035 BKN045 650401 640507 520003 540303 520609 521509 522408 QNH2988INS BECMG 2309/2311 25015G25KT 8000 SHRA SCT035 BKN045 650401 640507 520003 540303 520609 521509 522408 QNH2996INS T11/2220Z T04/2313Z AMD 1810